Time;durP1;ratioP1;P1;durP2;ratioP2;P2;SDS_P1;SDS_P2;PMS_P1;PMS_P2;Temp;Humidity;BMP_temperature;BMP_pressure;BME280_temperature;BME280_humidity;BME280_pressure;Samples;Min_cycle;Max_cycle;Signal;HPM_P1;HPM_P2
2023/07/20 00:00:17;;;;;;;5.13;4.17;;;15.00;1.00;;;;;;6223165;23;20176;-95
2023/07/20 00:02:44;;;;;;;4.90;4.40;;;14.90;1.00;;;;;;6227117;23;20175;-95
2023/07/20 00:05:11;;;;;;;6.10;4.23;;;14.90;1.00;;;;;;6226623;23;20619;-96
2023/07/20 00:07:39;;;;;;;309.37;192.73;;;14.90;87.10;;;;;;6225193;23;20175;-96
2023/07/20 00:10:07;;;;;;;15.33;10.87;;;14.80;99.90;;;;;;6230479;23;20211;-95
2023/07/20 00:12:34;;;;;;;6.23;5.13;;;14.80;99.90;;;;;;6228342;23;20232;-95
2023/07/20 00:15:01;;;;;;;5.70;4.50;;;14.80;99.90;;;;;;6230540;23;20176;-94
2023/07/20 00:17:28;;;;;;;7.20;4.20;;;14.80;99.90;;;;;;6229671;23;20176;-96
2023/07/20 00:19:55;;;;;;;5.47;3.80;;;14.90;99.90;;;;;;6227912;23;20182;-95
2023/07/20 00:22:22;;;;;;;4.57;3.63;;;14.90;99.90;;;;;;6226168;23;20170;-95
2023/07/20 00:24:53;;;;;;;4.10;3.70;;;14.90;99.90;;;;;;6227352;23;20197;-96
2023/07/20 00:27:20;;;;;;;4.93;3.77;;;15.00;99.90;;;;;;6230513;23;20168;-96
2023/07/20 00:29:47;;;;;;;6.43;4.00;;;15.00;99.90;;;;;;6227999;23;20175;-95
2023/07/20 00:32:14;;;;;;;4.33;3.87;;;15.10;99.90;;;;;;6226002;23;20691;-96
2023/07/20 00:34:41;;;;;;;4.53;3.67;;;15.10;1.00;;;;;;6234171;23;20169;-95
2023/07/20 00:37:08;;;;;;;10.63;4.80;;;15.20;1.00;;;;;;6236307;23;20183;-95
2023/07/20 00:39:36;;;;;;;5.90;3.57;;;15.20;1.00;;;;;;6237946;23;20182;-95
2023/07/20 00:42:07;;;;;;;7.05;3.83;;;15.30;1.00;;;;;;6236696;23;20201;-96
2023/07/20 00:44:34;;;;;;;4.37;3.27;;;15.30;1.00;;;;;;6236962;23;20187;-96
2023/07/20 00:47:01;;;;;;;5.82;3.40;;;15.50;1.00;;;;;;6238775;23;20228;-95
2023/07/20 00:49:31;;;;;;;5.33;3.37;;;15.50;1.00;;;;;;6238926;23;20174;-96
2023/07/20 00:52:03;;;;;;;3.40;3.10;;;15.50;1.00;;;;;;6239894;23;20168;-96
2023/07/20 00:54:31;;;;;;;4.47;3.33;;;15.50;1.00;;;;;;6239761;23;20159;-96
2023/07/20 00:56:59;;;;;;;4.20;3.40;;;15.50;1.00;;;;;;6241160;23;20197;-96
2023/07/20 00:59:27;;;;;;;3.55;3.00;;;15.40;1.00;;;;;;6239174;23;20175;-96
2023/07/20 01:01:54;;;;;;;4.18;3.10;;;15.40;1.00;;;;;;6237518;23;20180;-95
2023/07/20 01:04:22;;;;;;;4.63;3.30;;;15.40;1.00;;;;;;6239376;23;20181;-96
2023/07/20 01:06:59;;;;;;;3.83;3.17;;;15.40;99.90;;;;;;6240437;23;20168;-95
2023/07/20 01:09:32;;;;;;;4.05;3.30;;;15.30;99.90;;;;;;6238428;23;20174;-95
2023/07/20 01:12:05;;;;;;;3.87;3.10;;;15.20;99.90;;;;;;6237439;23;20159;-95
2023/07/20 01:14:36;;;;;;;5.38;3.45;;;15.10;99.90;;;;;;6236939;23;20158;-96
2023/07/20 01:17:05;;;;;;;6.73;3.47;;;14.90;99.90;;;;;;6239574;23;20189;-96
2023/07/20 01:19:47;;;;;;;4.63;3.30;;;14.90;99.90;;;;;;6241413;23;20179;-96
2023/07/20 01:22:29;;;;;;;4.40;3.90;;;14.80;99.90;;;;;;6239827;23;20160;-94
2023/07/20 01:25:16;;;;;;;5.33;4.13;;;14.70;99.90;;;;;;6236129;23;20153;-96
2023/07/20 01:28:20;;;;;;;5.30;3.53;;;14.70;99.90;;;;;;6235877;23;20161;-96
2023/07/20 01:30:56;;;;;;;4.90;3.60;;;14.70;99.90;;;;;;6237347;23;20183;-96
2023/07/20 01:33:26;;;;;;;4.37;3.70;;;14.70;1.00;;;;;;6229786;23;20172;-96
2023/07/20 01:35:58;;;;;;;4.83;3.70;;;14.80;1.00;;;;;;6239038;23;20240;-96
2023/07/20 01:38:26;;;;;;;7.00;3.63;;;14.80;1.00;;;;;;6243313;23;20168;-95
2023/07/20 01:40:55;;;;;;;4.13;3.50;;;14.80;1.00;;;;;;6243108;22;20198;-96
2023/07/20 01:43:25;;;;;;;4.03;3.60;;;14.80;1.00;;;;;;6243625;23;20204;-95
2023/07/20 01:45:55;;;;;;;4.60;3.30;;;14.80;1.00;;;;;;6236617;23;20195;-95
2023/07/20 01:48:25;;;;;;;4.27;3.40;;;14.70;99.90;;;;;;6237383;23;20160;-95
2023/07/20 01:50:52;;;;;;;5.65;3.60;;;14.60;1.00;;;;;;6240171;23;20170;-95
2023/07/20 01:53:19;;;;;;;4.00;3.20;;;14.60;1.00;;;;;;6230940;23;20234;-95
2023/07/20 01:55:46;;;;;;;5.53;3.37;;;14.50;99.90;;;;;;6233377;23;20203;-95
2023/07/20 01:58:15;;;;;;;5.23;3.80;;;14.40;99.90;;;;;;6231751;23;20172;-96
2023/07/20 02:00:42;;;;;;;5.80;4.03;;;14.30;99.90;;;;;;6231835;23;20644;-94
2023/07/20 02:03:11;;;;;;;4.90;3.97;;;14.20;99.90;;;;;;6230601;23;20180;-95
2023/07/20 02:05:40;;;;;;;5.00;3.80;;;14.10;99.90;;;;;;6225252;23;20231;-95
2023/07/20 02:08:07;;;;;;;4.90;3.80;;;14.10;1.00;;;;;;6228982;23;20218;-96
2023/07/20 02:10:34;;;;;;;3.97;3.57;;;14.00;99.90;;;;;;6234476;23;20171;-94
2023/07/20 02:13:01;;;;;;;4.80;4.13;;;14.00;1.00;;;;;;6231016;23;20510;-95
2023/07/20 02:15:28;;;;;;;4.47;3.80;;;13.90;1.00;;;;;;6237371;23;20176;-96
2023/07/20 02:17:59;;;;;;;5.13;4.30;;;13.90;1.00;;;;;;6236009;23;20171;-96
2023/07/20 02:20:27;;;;;;;4.37;3.97;;;13.90;1.00;;;;;;6241246;23;20153;-95
2023/07/20 02:22:55;;;;;;;5.50;4.00;;;13.90;1.00;;;;;;6239219;23;20179;-95
2023/07/20 02:25:22;;;;;;;5.67;4.10;;;13.90;1.00;;;;;;6243577;23;20175;-96
2023/07/20 02:27:52;;;;;;;7.57;4.23;;;13.80;10.10;;;;;;6239871;23;20167;-95
2023/07/20 02:30:23;;;;;;;5.63;4.43;;;13.80;99.90;;;;;;6236057;23;20164;-96
2023/07/20 02:32:50;;;;;;;8.53;4.53;;;13.80;99.90;;;;;;6233295;23;20163;-95
2023/07/20 02:35:18;;;;;;;8.33;4.43;;;13.90;99.90;;;;;;6237664;23;20178;-95
2023/07/20 02:37:45;;;;;;;5.87;4.83;;;13.90;99.90;;;;;;6233018;23;20188;-95
2023/07/20 02:40:16;;;;;;;5.27;4.37;;;13.90;99.90;;;;;;6236910;23;20166;-95
2023/07/20 02:42:50;;;;;;;6.53;4.10;;;13.90;99.90;;;;;;6237984;23;20199;-96
2023/07/20 02:45:18;;;;;;;4.90;3.90;;;14.00;99.90;;;;;;6239286;23;20166;-96
2023/07/20 02:47:48;;;;;;;5.70;4.30;;;14.10;99.90;;;;;;6240968;23;20191;-95
2023/07/20 02:50:15;;;;;;;6.40;4.60;;;14.10;99.90;;;;;;6239464;23;20169;-95
2023/07/20 02:52:45;;;;;;;10.00;4.77;;;14.20;99.90;;;;;;6240330;23;20176;-96
2023/07/20 02:55:13;;;;;;;7.37;4.97;;;14.30;99.90;;;;;;6239594;23;20163;-96
2023/07/20 02:57:40;;;;;;;5.93;4.87;;;14.40;99.90;;;;;;6236962;23;20200;-95
2023/07/20 03:00:09;;;;;;;6.37;4.80;;;14.50;99.90;;;;;;6230694;23;20198;-95
2023/07/20 03:02:36;;;;;;;8.73;6.17;;;14.50;99.90;;;;;;6235763;23;20522;-95
2023/07/20 03:05:05;;;;;;;6.37;4.70;;;14.60;99.90;;;;;;6241403;23;20172;-95
2023/07/20 03:07:32;;;;;;;6.57;5.07;;;14.70;99.90;;;;;;6239368;23;20172;-96
2023/07/20 03:10:07;;;;;;;7.57;4.87;;;14.80;99.90;;;;;;6240302;23;20175;-95
2023/07/20 03:12:38;;;;;;;7.33;4.80;;;14.90;99.90;;;;;;6241526;23;20141;-95
2023/07/20 03:15:09;;;;;;;6.47;5.13;;;15.00;99.90;;;;;;6241855;22;20210;-94
2023/07/20 03:17:36;;;;;;;9.33;5.00;;;15.00;99.90;;;;;;6240494;23;20191;-96
2023/07/20 03:20:05;;;;;;;6.03;4.80;;;15.00;99.90;;;;;;6239285;23;20183;-96
2023/07/20 03:22:33;;;;;;;7.37;5.00;;;15.00;99.90;;;;;;6235523;23;20172;-94
2023/07/20 03:25:00;;;;;;;5.43;4.53;;;15.10;99.90;;;;;;6232837;23;20205;-95
2023/07/20 03:27:29;;;;;;;9.00;4.73;;;15.20;99.90;;;;;;6232228;23;20223;-96
2023/07/20 03:29:58;;;;;;;5.40;4.60;;;15.20;99.90;;;;;;6232494;23;20176;-95
2023/07/20 03:32:25;;;;;;;8.30;4.70;;;15.20;99.90;;;;;;6236849;23;20170;-94
2023/07/20 03:35:01;;;;;;;4.97;4.35;;;15.30;99.90;;;;;;6237383;23;20174;-96
2023/07/20 03:37:35;;;;;;;8.43;5.00;;;15.40;99.90;;;;;;6240719;23;20178;-96
2023/07/20 03:40:02;;;;;;;8.38;4.78;;;15.40;99.90;;;;;;6240416;23;20197;-95
2023/07/20 03:42:31;;;;;;;5.93;4.37;;;15.50;99.90;;;;;;6241022;23;20199;-95
2023/07/20 03:44:59;;;;;;;6.50;4.38;;;15.60;99.90;;;;;;6240274;23;20172;-95
2023/07/20 03:47:28;;;;;;;5.57;4.33;;;15.60;94.90;;;;;;6240633;23;20170;-95
2023/07/20 03:49:55;;;;;;;9.70;4.40;;;15.70;11.90;;;;;;6241242;23;20175;-94
2023/07/20 03:52:23;;;;;;;7.60;4.38;;;15.70;11.40;;;;;;6240790;23;20182;-96
2023/07/20 03:54:52;;;;;;;6.75;4.53;;;15.80;1.00;;;;;;6223445;22;20254;-96
2023/07/20 03:57:19;;;;;;;7.82;4.93;;;15.80;9.70;;;;;;6226853;22;20183;-96
2023/07/20 03:59:47;;;;;;;9.05;4.65;;;15.90;1.00;;;;;;6274231;22;20163;-96
2023/07/20 04:02:23;;;;;;;6.45;3.85;;;16.00;1.00;;;;;;6273030;23;20214;-95
2023/07/20 04:04:50;;;;;;;6.28;4.30;;;16.20;1.00;;;;;;6267250;23;20183;-95
2023/07/20 04:07:17;;;;;;;6.00;4.60;;;16.30;1.00;;;;;;6260558;23;20178;-95
2023/07/20 04:09:44;;;;;;;5.90;4.38;;;16.50;1.00;;;;;;6268757;23;20175;-95
2023/07/20 04:12:11;;;;;;;6.28;4.20;;;16.60;1.00;;;;;;6265024;23;20175;-95
2023/07/20 04:14:38;;;;;;;6.13;4.20;;;16.70;1.00;;;;;;6270122;23;20172;-96
2023/07/20 04:17:08;;;;;;;4.82;3.67;;;16.80;99.90;;;;;;6271054;22;20242;-96
2023/07/20 04:19:36;;;;;;;6.68;4.45;;;17.00;99.90;;;;;;6272214;23;20172;-96
2023/07/20 04:22:03;;;;;;;5.80;4.55;;;17.20;99.90;;;;;;6273069;23;20174;-96
2023/07/20 04:24:34;;;;;;;5.05;4.00;;;17.30;99.90;;;;;;6273487;22;20163;-96
2023/07/20 04:27:01;;;;;;;4.95;3.97;;;17.50;1.00;;;;;;6270147;23;20188;-95
2023/07/20 04:29:28;;;;;;;4.15;3.75;;;17.70;1.00;;;;;;6270848;23;20187;-95
2023/07/20 04:32:01;;;;;;;5.22;4.00;;;17.90;1.00;;;;;;6270511;23;20172;-96
2023/07/20 04:34:28;;;;;;;4.15;3.60;;;18.00;1.00;;;;;;6273068;22;20187;-96
2023/07/20 04:57:50;;;;;;;6.72;3.65;;;18.40;1.00;;;;;;6205240;22;21169;-94
2023/07/20 05:13:24;;;;;;;5.80;3.42;;;18.70;99.90;;;;;;6186323;22;20156;-95
2023/07/20 05:15:53;;;;;;;5.15;3.30;;;18.80;99.90;;;;;;6234022;23;20184;-96
2023/07/20 05:18:20;;;;;;;49.60;11.45;;;19.00;99.90;;;;;;6231873;23;20359;-96
2023/07/20 05:20:48;;;;;;;29.42;13.02;;;19.30;99.90;;;;;;6230261;23;20172;-95
2023/07/20 05:23:15;;;;;;;20.10;9.45;;;19.70;1.00;;;;;;6226664;23;20173;-95
2023/07/20 05:25:42;;;;;;;47.55;18.65;;;20.20;1.00;;;;;;6224108;23;20185;-96
2023/07/20 05:28:09;;;;;;;111.60;34.92;;;20.60;1.00;;;;;;6224847;23;20197;-95
2023/07/20 05:30:38;;;;;;;54.63;20.38;;;20.90;99.90;;;;;;6228138;23;20216;-96
2023/07/20 05:33:07;;;;;;;50.25;19.67;;;21.00;99.90;;;;;;6233060;23;20169;-96
2023/07/20 05:35:34;;;;;;;29.02;12.10;;;21.10;99.90;;;;;;6239316;23;20173;-96
2023/07/20 05:38:06;;;;;;;45.65;17.48;;;21.10;57.60;;;;;;6237239;23;20189;-96
2023/07/20 05:40:41;;;;;;;21.92;9.43;;;21.00;26.60;;;;;;6237838;23;20149;-96
2023/07/20 05:43:08;;;;;;;27.73;11.00;;;20.90;1.00;;;;;;6237222;22;20211;-96
2023/07/20 05:45:35;;;;;;;30.40;12.00;;;20.80;1.00;;;;;;6236288;22;20179;-94
2023/07/20 06:19:10;;;;;;;13.68;6.90;;;18.80;99.90;;;;;;6185117;22;21160;-92
2023/07/20 07:44:19;;;;;;;9.75;6.00;;;21.60;29.60;;;;;;6194974;22;20232;-90
2023/07/20 08:24:18;;;;;;;5.10;4.65;;;22.20;99.90;;;;;;6207373;22;21217;31
2023/07/20 08:26:45;;;;;;;6.68;4.30;;;22.50;99.90;;;;;;6216794;22;20292;-96
2023/07/20 08:29:12;;;;;;;4.20;3.85;;;22.80;99.90;;;;;;6226150;23;20236;-95
2023/07/20 08:31:40;;;;;;;4.13;3.55;;;23.40;99.90;;;;;;6228776;23;20173;-96
2023/07/20 08:34:07;;;;;;;2.80;2.58;;;23.90;1.00;;;;;;6219277;23;20315;-96
2023/07/20 08:36:33;;;;;;;3.08;2.67;;;24.30;1.00;;;;;;6224322;23;20188;-95
2023/07/20 08:39:03;;;;;;;4.63;2.97;;;24.60;1.00;;;;;;6223948;23;20188;-95
2023/07/20 08:41:31;;;;;;;3.55;3.22;;;24.80;1.00;;;;;;6225610;23;20240;-95
2023/07/20 08:43:59;;;;;;;5.78;4.05;;;24.70;1.00;;;;;;6228777;23;20169;-96
2023/07/20 08:46:29;;;;;;;7.38;3.78;;;24.30;1.00;;;;;;6233793;23;20173;-95
2023/07/20 08:48:57;;;;;;;3.95;3.53;;;24.00;1.00;;;;;;6228282;23;20643;-95
2023/07/20 08:51:25;;;;;;;2.90;2.60;;;23.70;1.00;;;;;;6229272;23;20234;-95
2023/07/20 08:53:56;;;;;;;3.10;2.85;;;23.50;1.00;;;;;;6223455;23;20671;-96
2023/07/20 08:56:26;;;;;;;3.53;3.00;;;23.40;1.00;;;;;;6228477;23;20224;-96
2023/07/20 08:58:54;;;;;;;3.30;3.05;;;23.10;1.00;;;;;;6228415;22;20283;-95
2023/07/20 09:01:22;;;;;;;3.75;3.40;;;23.00;1.00;;;;;;6227499;23;20157;-94
2023/07/20 09:03:49;;;;;;;3.63;3.33;;;22.70;1.00;;;;;;6222834;23;20188;-95
2023/07/20 09:06:17;;;;;;;3.42;3.10;;;22.60;1.00;;;;;;6226224;23;20165;-95
2023/07/20 09:08:44;;;;;;;3.67;2.80;;;22.60;1.00;;;;;;6225166;23;20165;-94
2023/07/20 09:11:13;;;;;;;3.97;3.15;;;22.70;1.00;;;;;;6227965;23;20205;-95
2023/07/20 09:13:40;;;;;;;2.72;2.38;;;22.70;1.00;;;;;;6227083;23;20171;-95
2023/07/20 09:16:08;;;;;;;2.63;2.42;;;23.00;1.00;;;;;;6229362;23;20173;-94
2023/07/20 09:18:35;;;;;;;1.48;1.38;;;23.30;1.00;;;;;;6219702;23;20217;-93
2023/07/20 09:21:04;;;;;;;2.05;1.90;;;23.50;1.00;;;;;;6219217;23;20181;-93
2023/07/20 09:23:32;;;;;;;2.85;2.65;;;23.80;1.00;;;;;;6218561;23;20169;-93
2023/07/20 09:25:59;;;;;;;2.65;2.10;;;24.20;1.00;;;;;;6218953;23;20267;-94
2023/07/20 09:28:27;;;;;;;2.97;1.77;;;24.70;1.00;;;;;;6219029;23;20192;-94
2023/07/20 09:30:56;;;;;;;1.90;1.25;;;25.20;1.00;;;;;;6222066;23;20191;-95
2023/07/20 09:33:26;;;;;;;1.88;1.25;;;25.60;1.00;;;;;;6218522;23;20486;-94
2023/07/20 09:35:52;;;;;;;1.55;1.08;;;25.80;99.90;;;;;;6219246;23;20176;-95
2023/07/20 09:38:20;;;;;;;0.85;0.70;;;25.90;99.90;;;;;;6219036;23;20181;-95
2023/07/20 09:40:47;;;;;;;1.25;0.85;;;26.10;99.90;;;;;;6218964;23;20256;-95
2023/07/20 09:43:17;;;;;;;2.08;0.80;;;26.30;99.90;;;;;;6218301;23;20694;-94
2023/07/20 09:45:43;;;;;;;2.00;0.90;;;26.50;99.90;;;;;;6218373;23;20208;-93
2023/07/20 09:48:14;;;;;;;1.88;0.80;;;26.30;99.90;;;;;;6219094;23;20564;-94
2023/07/20 09:50:49;;;;;;;1.35;0.90;;;26.00;99.90;;;;;;6223096;23;20149;-96
2023/07/20 09:53:17;;;;;;;1.90;0.88;;;25.80;99.90;;;;;;6218321;23;20215;-94
2023/07/20 09:55:46;;;;;;;1.80;0.90;;;25.70;99.90;;;;;;6218279;23;20173;-95
2023/07/20 09:58:17;;;;;;;1.10;1.00;;;25.40;99.90;;;;;;6222468;23;20192;-95
2023/07/20 10:03:38;;;;;;;6.68;1.60;;;24.10;99.90;;;;;;6234427;22;20205;-96
2023/07/20 10:06:09;;;;;;;5.30;1.75;;;23.20;99.90;;;;;;6260367;23;20182;-95
2023/07/20 10:08:41;;;;;;;3.63;1.33;;;22.20;99.90;;;;;;6271558;23;20136;-94
2023/07/20 10:16:25;;;;;;;2.47;2.20;;;20.70;99.90;;;;;;6197504;22;20200;-85
2023/07/20 10:24:07;;;;;;;4.00;3.28;;;21.00;1.00;;;;;;6195775;22;20203;-92
2023/07/20 10:29:32;;;;;;;5.10;4.68;;;21.60;1.00;;;;;;6221844;22;20255;-95
2023/07/20 10:31:59;;;;;;;3.60;3.40;;;22.20;1.00;;;;;;6236849;23;20200;-96
2023/07/20 10:34:29;;;;;;;3.80;3.50;;;22.60;99.90;;;;;;6233795;23;20157;-96
2023/07/20 10:36:56;;;;;;;2.80;2.60;;;23.10;99.90;;;;;;6233594;23;20184;-96
2023/07/20 10:39:27;;;;;;;3.25;2.65;;;23.80;21.90;;;;;;6235517;23;20221;-95
2023/07/20 10:42:03;;;;;;;2.97;2.10;;;24.50;1.00;;;;;;6229922;23;20157;-95
2023/07/20 10:44:30;;;;;;;2.22;1.42;;;24.90;1.00;;;;;;6226553;23;20164;-94
2023/07/20 10:47:05;;;;;;;1.23;1.13;;;24.80;1.00;;;;;;6224552;23;20201;-95
2023/07/20 10:49:35;;;;;;;1.00;0.90;;;24.30;1.00;;;;;;6226407;23;20596;-96
2023/07/20 10:52:06;;;;;;;1.40;1.00;;;23.70;1.00;;;;;;6226526;23;20176;-95
2023/07/20 10:54:49;;;;;;;1.75;0.90;;;23.10;99.90;;;;;;6221000;23;20180;-94
2023/07/20 10:57:31;;;;;;;1.55;0.80;;;22.60;99.90;;;;;;6219850;23;20491;-94
2023/07/20 11:00:12;;;;;;;1.48;0.75;;;22.30;99.90;;;;;;6224266;23;20236;-94
2023/07/20 11:02:49;;;;;;;1.45;0.90;;;22.30;1.00;;;;;;6219294;23;20548;-95
2023/07/20 11:05:42;;;;;;;1.58;0.70;;;22.50;1.00;;;;;;6217779;23;20168;-94
2023/07/20 11:08:12;;;;;;;2.17;0.88;;;22.70;1.00;;;;;;6189198;23;20207;-94
2023/07/20 11:10:40;;;;;;;1.17;0.70;;;22.90;99.90;;;;;;6219276;23;20615;-94
2023/07/20 11:13:22;;;;;;;2.25;0.80;;;23.10;99.90;;;;;;6217494;23;20168;-94
2023/07/20 11:16:03;;;;;;;1.95;1.20;;;23.10;99.90;;;;;;6218307;23;20169;-94
2023/07/20 11:18:30;;;;;;;3.58;1.00;;;23.10;99.90;;;;;;6218070;23;20259;-94
2023/07/20 11:20:57;;;;;;;1.63;1.15;;;23.10;99.90;;;;;;6217391;23;20627;-93
2023/07/20 11:23:24;;;;;;;2.03;1.10;;;22.90;99.90;;;;;;6218853;23;20253;-93
2023/07/20 11:25:52;;;;;;;1.20;0.93;;;22.60;99.90;;;;;;6218470;23;20173;-95
2023/07/20 11:28:19;;;;;;;3.03;1.08;;;22.50;99.90;;;;;;6220806;23;20275;-96
2023/07/20 11:30:51;;;;;;;1.33;1.10;;;22.50;99.90;;;;;;6218779;23;20236;-96
2023/07/20 11:33:18;;;;;;;1.85;1.00;;;22.30;99.90;;;;;;6221420;23;20165;-94
2023/07/20 11:35:46;;;;;;;1.20;1.10;;;21.90;99.90;;;;;;6237281;23;20176;-96
2023/07/20 11:38:13;;;;;;;1.88;1.20;;;21.60;1.00;;;;;;6234262;23;20192;-95
2023/07/20 11:40:44;;;;;;;3.58;1.40;;;21.40;1.00;;;;;;6230925;23;20200;-96
2023/07/20 11:43:14;;;;;;;1.70;1.20;;;21.40;1.00;;;;;;6228479;23;20149;-95
2023/07/20 11:45:41;;;;;;;2.38;1.23;;;21.70;1.00;;;;;;6223420;23;20173;-96
2023/07/20 11:48:08;;;;;;;1.80;1.27;;;22.00;1.00;;;;;;6218489;23;20176;-94
2023/07/20 11:50:40;;;;;;;1.40;1.30;;;22.30;1.00;;;;;;6219186;23;20173;-96
2023/07/20 11:53:07;;;;;;;2.88;1.23;;;22.50;1.00;;;;;;6218761;23;20153;-95
2023/07/20 11:55:34;;;;;;;1.77;1.30;;;22.60;1.00;;;;;;6218691;23;20173;-96
2023/07/20 11:58:05;;;;;;;1.27;1.15;;;22.60;1.00;;;;;;6227640;23;20188;-96
2023/07/20 12:00:37;;;;;;;1.90;1.20;;;22.70;1.00;;;;;;6228926;23;20256;-96
2023/07/20 12:03:07;;;;;;;1.80;1.30;;;22.70;1.00;;;;;;6234138;23;20181;-95
2023/07/20 12:05:34;;;;;;;1.33;1.20;;;22.50;1.00;;;;;;6232154;23;20169;-96
2023/07/20 12:08:01;;;;;;;5.57;1.23;;;22.20;1.00;;;;;;6217864;23;20188;-94
2023/07/20 12:10:29;;;;;;;1.45;1.33;;;21.90;1.00;;;;;;6220254;23;20180;-94
2023/07/20 12:13:02;;;;;;;6.60;2.35;;;21.40;1.00;;;;;;6236792;22;20169;-96
2023/07/20 12:15:31;;;;;;;10.48;3.03;;;20.70;1.00;;;;;;6233385;23;20222;-96
2023/07/20 12:18:01;;;;;;;8.38;2.70;;;20.00;99.90;;;;;;6226414;23;20175;-96
2023/07/20 12:23:12;;;;;;;3.83;2.72;;;19.20;99.90;;;;;;6227507;22;20191;-96
2023/07/20 12:33:26;;;;;;;2.10;1.50;;;19.90;99.90;;;;;;6182506;22;20155;-91
2023/07/20 12:35:55;;;;;;;2.75;1.70;;;20.20;1.00;;;;;;6235483;22;20177;-96
2023/07/20 12:38:23;;;;;;;3.85;1.42;;;20.40;1.00;;;;;;6233141;23;20185;-96
2023/07/20 13:01:34;;;;;;;0.77;0.73;;;23.50;17.40;;;;;;6232148;22;20256;-95
2023/07/20 13:04:03;;;;;;;1.60;0.93;;;23.70;1.00;;;;;;6239194;23;20166;-96
2023/07/20 13:06:30;;;;;;;4.03;0.70;;;24.00;1.00;;;;;;6237656;23;20470;-96
2023/07/20 13:08:58;;;;;;;1.05;0.70;;;24.10;1.00;;;;;;6229071;23;20173;-94
2023/07/20 13:11:25;;;;;;;1.52;0.70;;;24.00;1.00;;;;;;6224729;23;20189;-96
2023/07/20 13:13:52;;;;;;;2.88;0.70;;;23.80;1.00;;;;;;6221945;23;20173;-96
2023/07/20 13:16:18;;;;;;;2.30;1.00;;;23.60;1.00;;;;;;6221473;23;20173;-95
2023/07/20 13:18:47;;;;;;;1.08;0.73;;;23.60;1.00;;;;;;6220328;23;20267;-96
2023/07/20 13:21:14;;;;;;;2.20;0.82;;;23.60;1.00;;;;;;6219694;23;20173;-94
2023/07/20 13:23:40;;;;;;;0.60;0.60;;;23.40;1.00;;;;;;6219250;23;20248;-95
2023/07/20 13:26:08;;;;;;;1.88;0.85;;;23.20;1.00;;;;;;6219609;23;20165;-95
2023/07/20 13:28:35;;;;;;;0.80;0.80;;;22.90;1.00;;;;;;6220287;23;20169;-94
2023/07/20 13:31:02;;;;;;;1.00;0.90;;;22.70;1.00;;;;;;6218351;23;20188;-95
2023/07/20 13:33:29;;;;;;;0.63;0.63;;;22.60;1.00;;;;;;6218726;23;20244;-94
2023/07/20 13:35:57;;;;;;;0.95;0.70;;;22.60;1.00;;;;;;6219075;23;20169;-94
2023/07/20 13:38:24;;;;;;;1.00;0.70;;;23.00;1.00;;;;;;6218604;23;20584;-94
2023/07/20 13:40:51;;;;;;;1.52;0.90;;;23.10;1.00;;;;;;6218269;23;20165;-95
2023/07/20 13:43:18;;;;;;;0.85;0.65;;;22.90;1.00;;;;;;6218471;23;20173;-95
2023/07/20 13:45:45;;;;;;;1.40;0.90;;;22.70;99.90;;;;;;6218348;23;20165;-95
2023/07/20 13:48:12;;;;;;;1.13;0.80;;;22.70;99.90;;;;;;6218669;23;20189;-94
2023/07/20 13:50:39;;;;;;;1.63;0.85;;;22.70;99.90;;;;;;6218591;23;20179;-94
2023/07/20 13:53:07;;;;;;;0.73;0.60;;;22.50;99.90;;;;;;6218419;23;20562;-94
2023/07/20 13:55:36;;;;;;;0.60;0.60;;;22.40;99.90;;;;;;6218472;23;20196;-94
2023/07/20 13:58:03;;;;;;;0.95;0.70;;;22.50;99.90;;;;;;6218027;23;20180;-94
2023/07/20 14:00:32;;;;;;;0.80;0.63;;;22.60;99.90;;;;;;6218213;23;20738;-93
2023/07/20 14:03:00;;;;;;;0.63;0.60;;;23.00;99.90;;;;;;6218114;23;20204;-94
2023/07/20 14:05:28;;;;;;;1.23;0.68;;;23.50;99.90;;;;;;6218739;23;20169;-95
2023/07/20 14:07:54;;;;;;;1.45;0.88;;;23.90;99.90;;;;;;6218511;23;20232;-94
2023/07/20 14:10:23;;;;;;;0.60;0.50;;;23.90;99.90;;;;;;6218568;23;20290;-95
2023/07/20 14:12:50;;;;;;;0.60;0.50;;;23.70;99.90;;;;;;6217889;23;20165;-93
2023/07/20 14:15:18;;;;;;;1.67;0.80;;;23.80;99.90;;;;;;6218038;23;20175;-95
2023/07/20 14:17:45;;;;;;;0.90;0.60;;;24.00;99.90;;;;;;6217951;23;20169;-93
2023/07/20 14:20:13;;;;;;;0.82;0.40;;;24.30;99.90;;;;;;6217785;23;20254;-95
2023/07/20 14:22:41;;;;;;;1.15;0.50;;;24.10;99.90;;;;;;6217312;23;20612;-93
2023/07/20 14:25:09;;;;;;;1.88;0.50;;;24.10;99.90;;;;;;6217961;23;20169;-94
2023/07/20 14:27:37;;;;;;;0.60;0.47;;;24.10;99.90;;;;;;6217874;23;20533;-93
2023/07/20 14:30:04;;;;;;;2.97;0.50;;;23.90;99.90;;;;;;6218089;23;20253;-94
2023/07/20 14:32:33;;;;;;;1.20;0.60;;;23.70;99.90;;;;;;6218025;23;20256;-94
2023/07/20 14:35:00;;;;;;;2.80;0.80;;;23.70;99.90;;;;;;6217431;23;20173;-95
2023/07/20 14:37:27;;;;;;;2.40;0.75;;;23.80;99.90;;;;;;6217654;23;20208;-94
2023/07/20 14:39:54;;;;;;;1.88;0.63;;;24.00;99.90;;;;;;6217963;23;20263;-94
2023/07/20 14:42:21;;;;;;;0.80;0.60;;;24.30;99.90;;;;;;6217562;23;20169;-95
2023/07/20 14:44:49;;;;;;;0.90;0.65;;;24.50;99.90;;;;;;6217670;23;20169;-93
2023/07/20 14:47:16;;;;;;;0.60;0.60;;;24.70;99.90;;;;;;6217577;23;20723;-94
2023/07/20 14:49:43;;;;;;;0.95;0.70;;;24.80;99.90;;;;;;6217734;23;20248;-93
2023/07/20 14:52:10;;;;;;;0.95;0.70;;;24.70;99.90;;;;;;6218279;23;20165;-92
2023/07/20 14:54:36;;;;;;;1.50;0.70;;;24.60;99.90;;;;;;6217706;23;20237;-93
2023/07/20 14:57:04;;;;;;;0.75;0.75;;;24.40;99.90;;;;;;6217890;23;20263;-94
2023/07/20 14:59:31;;;;;;;1.20;0.93;;;24.20;99.90;;;;;;6217404;23;20185;-94
2023/07/20 15:01:59;;;;;;;12.77;9.75;;;24.00;99.90;;;;;;6217226;23;20197;-94
2023/07/20 15:04:26;;;;;;;2.53;2.33;;;23.90;99.90;;;;;;6217503;23;20252;-94
2023/07/20 15:06:54;;;;;;;12.90;9.20;;;23.70;99.90;;;;;;6218139;23;20219;-94
2023/07/20 15:09:21;;;;;;;12.02;9.43;;;23.70;99.90;;;;;;6217493;23;20211;-95
2023/07/20 15:11:48;;;;;;;7.82;6.30;;;23.80;99.90;;;;;;6217619;23;20196;-93
2023/07/20 15:14:15;;;;;;;6.55;5.85;;;23.80;99.90;;;;;;6217070;23;20240;-92
2023/07/20 15:16:42;;;;;;;15.00;13.52;;;23.70;99.90;;;;;;6217502;23;20161;-95
2023/07/20 15:19:13;;;;;;;4.63;4.22;;;23.70;99.90;;;;;;6217438;23;20192;-95
2023/07/20 15:21:40;;;;;;;5.50;4.25;;;23.80;99.90;;;;;;6217629;23;20157;-95
2023/07/20 15:24:07;;;;;;;3.08;2.80;;;23.90;99.90;;;;;;6217324;23;20211;-95
2023/07/20 15:26:35;;;;;;;4.57;4.10;;;24.10;99.90;;;;;;6217422;23;20503;-95
2023/07/20 15:29:01;;;;;;;1.90;1.60;;;24.40;99.90;;;;;;6217662;23;20204;-94
2023/07/20 15:31:28;;;;;;;2.40;2.20;;;24.60;99.90;;;;;;6217188;23;20165;-95
2023/07/20 15:33:56;;;;;;;3.25;2.95;;;24.50;99.90;;;;;;6217267;23;20204;-95
2023/07/20 15:36:24;;;;;;;1.77;1.60;;;24.30;99.90;;;;;;6217262;23;20164;-95
2023/07/20 15:38:51;;;;;;;2.22;1.30;;;24.30;99.90;;;;;;6217266;23;20172;-96
2023/07/20 15:41:18;;;;;;;2.35;1.00;;;24.40;99.90;;;;;;6217105;23;20172;-95
2023/07/20 15:43:46;;;;;;;2.55;1.20;;;24.50;99.90;;;;;;6218635;23;20173;-96
2023/07/20 15:46:45;;;;;;;1.80;1.23;;;24.60;99.90;;;;;;6218100;23;20175;-95
2023/07/20 15:49:12;;;;;;;3.70;1.38;;;24.50;99.90;;;;;;6218106;23;20165;-92
2023/07/20 15:51:41;;;;;;;3.50;2.35;;;24.20;99.90;;;;;;6219947;23;20251;-95
2023/07/20 15:54:10;;;;;;;2.60;0.90;;;24.00;99.90;;;;;;6217555;23;20169;-94
2023/07/20 15:56:37;;;;;;;2.92;0.90;;;23.80;99.90;;;;;;6217351;23;20173;-94
2023/07/20 15:59:05;;;;;;;1.05;0.70;;;23.80;99.90;;;;;;6217074;23;20582;-94
2023/07/20 16:01:32;;;;;;;2.28;1.48;;;23.60;99.90;;;;;;6219913;23;20221;-96
2023/07/20 16:04:00;;;;;;;3.97;2.50;;;23.50;99.90;;;;;;6223045;23;20711;-96
2023/07/20 16:06:28;;;;;;;1.20;0.60;;;23.50;99.90;;;;;;6218653;23;20177;-96
2023/07/20 16:08:56;;;;;;;1.05;0.70;;;23.60;99.90;;;;;;6219132;23;20168;-96
2023/07/20 16:11:24;;;;;;;1.98;0.57;;;23.70;99.90;;;;;;6217258;23;20168;-95
2023/07/20 16:13:52;;;;;;;3.25;0.90;;;23.50;99.90;;;;;;6217092;23;20511;-94
2023/07/20 16:16:19;;;;;;;3.00;0.68;;;23.30;99.90;;;;;;6217159;23;20176;-96
2023/07/20 16:18:45;;;;;;;2.88;0.93;;;23.20;99.90;;;;;;6217182;23;20200;-96
2023/07/20 16:21:12;;;;;;;3.03;0.60;;;23.20;99.90;;;;;;6217483;23;20252;-94
2023/07/20 16:23:39;;;;;;;1.10;0.70;;;23.10;99.90;;;;;;6216918;23;20189;-96
2023/07/20 16:26:07;;;;;;;0.70;0.70;;;23.20;99.90;;;;;;6216816;23;20666;-94
2023/07/20 16:28:34;;;;;;;0.93;0.85;;;23.30;99.90;;;;;;6217188;23;20202;-95
2023/07/20 16:31:09;;;;;;;2.35;0.90;;;23.30;99.90;;;;;;6216986;23;20165;-95
2023/07/20 16:33:35;;;;;;;2.00;0.90;;;23.30;99.90;;;;;;6217231;23;20484;-95
2023/07/20 16:36:02;;;;;;;2.63;0.75;;;23.40;99.90;;;;;;6219214;23;20197;-95
2023/07/20 16:38:29;;;;;;;1.80;1.50;;;23.50;99.90;;;;;;6221012;23;20173;-96
2023/07/20 16:40:57;;;;;;;1.42;1.00;;;23.60;99.90;;;;;;6219927;23;20212;-96
2023/07/20 16:43:25;;;;;;;2.22;1.73;;;23.70;99.90;;;;;;6221874;23;20165;-96
2023/07/20 16:45:58;;;;;;;1.33;1.02;;;23.50;99.90;;;;;;6222700;23;20224;-96
2023/07/20 16:48:25;;;;;;;1.67;0.90;;;23.20;99.90;;;;;;6221940;23;20191;-96
2023/07/20 16:50:52;;;;;;;9.65;5.85;;;23.00;99.90;;;;;;6219368;23;20681;-96